createdAt,value
2022-08-16T00:02:33.219Z,98.85
2022-08-16T00:05:01.191Z,98.81
2022-08-16T00:07:29.636Z,98.27
2022-08-16T00:09:57.680Z,98.11
2022-08-16T00:17:01.350Z,98.42
2022-08-16T00:19:41.585Z,98.61
2022-08-16T00:22:13.679Z,98.57
2022-08-16T00:24:44.711Z,98.80
2022-08-16T00:27:15.269Z,99.09
2022-08-16T00:29:45.879Z,98.87
2022-08-16T00:32:18.086Z,99.21
2022-08-16T00:34:54.304Z,99.86
2022-08-16T00:37:24.836Z,100.00
2022-08-16T00:40:33.435Z,100.00
2022-08-16T00:42:58.037Z,100.00
2022-08-16T00:45:36.883Z,99.73
2022-08-16T00:48:30.732Z,99.52
2022-08-16T00:50:59.799Z,99.67
2022-08-16T00:53:30.629Z,99.50
2022-08-16T00:56:05.661Z,99.10
2022-08-16T00:58:35.815Z,98.48
2022-08-16T01:01:08.388Z,97.33
2022-08-16T01:03:41.636Z,97.00
2022-08-16T01:06:40.379Z,95.87
2022-08-16T01:09:00.525Z,94.80
2022-08-16T01:11:29.575Z,94.51
2022-08-16T01:14:03.789Z,95.57
2022-08-16T01:16:32.103Z,96.53
2022-08-16T01:19:05.452Z,96.66
2022-08-16T01:21:43.637Z,97.05
2022-08-16T01:24:52.398Z,97.58
2022-08-16T01:27:15.151Z,97.97
2022-08-16T01:29:58.369Z,98.90
2022-08-16T01:32:34.167Z,99.31
2022-08-16T01:35:07.186Z,99.14
2022-08-16T01:37:42.270Z,98.78
2022-08-16T01:40:15.611Z,98.90
2022-08-16T01:42:47.942Z,98.46
2022-08-16T01:45:19.767Z,98.93
2022-08-16T01:47:51.274Z,98.95
2022-08-16T01:50:41.821Z,98.57
2022-08-16T01:53:11.224Z,97.89
2022-08-16T01:56:00.907Z,96.83
2022-08-16T01:58:32.960Z,96.16
2022-08-16T02:01:00.819Z,95.37
2022-08-16T02:03:30.899Z,94.96
2022-08-16T02:05:58.569Z,94.21
2022-08-16T02:08:33.313Z,93.60
2022-08-16T02:11:06.643Z,93.09
2022-08-16T02:13:35.342Z,92.80
2022-08-16T02:16:05.153Z,93.04
2022-08-16T02:18:46.447Z,93.07
2022-08-16T02:21:15.612Z,92.64
2022-08-16T02:23:44.306Z,92.57
2022-08-16T02:26:17.018Z,93.04
2022-08-16T02:28:47.411Z,93.38
2022-08-16T02:31:16.589Z,94.13
2022-08-16T02:33:50.632Z,94.64
2022-08-16T02:36:47.605Z,94.99
2022-08-16T02:39:20.217Z,94.82
2022-08-16T02:41:54.079Z,94.35
2022-08-16T02:44:27.017Z,93.89
2022-08-16T02:46:56.455Z,93.35
2022-08-16T02:49:58.581Z,93.31
2022-08-16T02:52:24.477Z,93.92
2022-08-16T02:54:55.837Z,94.51
2022-08-16T02:57:27.396Z,95.18
2022-08-16T02:59:56.169Z,95.35
2022-08-16T03:02:31.982Z,94.77
2022-08-16T03:05:02.456Z,94.61
2022-08-16T03:07:37.105Z,94.10
2022-08-16T03:10:08.471Z,93.52
2022-08-16T03:12:55.605Z,93.66
2022-08-16T03:15:26.219Z,93.92
2022-08-16T03:17:55.865Z,94.13
2022-08-16T03:20:32.277Z,94.00
2022-08-16T03:23:02.747Z,94.45
2022-08-16T03:25:43.333Z,94.57
2022-08-16T03:28:17.195Z,94.65
2022-08-16T03:30:46.310Z,94.83
2022-08-16T03:33:16.254Z,95.36
2022-08-16T03:35:59.097Z,95.08
2022-08-16T03:38:46.987Z,94.95
2022-08-16T03:41:25.280Z,95.07
2022-08-16T03:43:56.371Z,94.89
2022-08-16T03:46:48.347Z,95.08
2022-08-16T03:49:20.123Z,94.85
2022-08-16T03:51:52.216Z,94.50
2022-08-16T03:54:28.784Z,94.53
2022-08-16T03:56:58.843Z,95.12
2022-08-16T03:59:32.307Z,95.46
2022-08-16T04:02:22.031Z,95.31
2022-08-16T04:04:51.341Z,95.46
2022-08-16T04:07:19.279Z,95.52
2022-08-16T04:09:49.095Z,95.64
2022-08-16T04:12:53.904Z,95.82
2022-08-16T04:15:08.037Z,96.30
2022-08-16T04:17:41.919Z,96.20
2022-08-16T04:20:31.377Z,95.87
2022-08-16T04:23:02.527Z,95.55
2022-08-16T04:25:32.587Z,96.14
2022-08-16T04:28:52.044Z,96.60
2022-08-16T04:30:50.455Z,96.69
2022-08-16T04:33:19.366Z,96.58
2022-08-16T04:35:57.912Z,96.46
2022-08-16T04:38:26.504Z,96.11
2022-08-16T04:40:56.988Z,95.29
2022-08-16T04:43:25.781Z,95.03
2022-08-16T04:46:00.311Z,95.25
2022-08-16T04:48:33.961Z,95.09
2022-08-16T04:51:11.612Z,95.50
2022-08-16T04:53:46.882Z,95.51
2022-08-16T04:56:16.513Z,95.43
2022-08-16T04:58:46.796Z,95.34
2022-08-16T05:01:19.191Z,95.22
2022-08-16T05:04:01.272Z,95.25
2022-08-16T05:06:45.403Z,95.43
2022-08-16T05:09:39.214Z,95.76
2022-08-16T05:12:12.906Z,95.89
2022-08-16T05:15:02.106Z,95.94
2022-08-16T05:17:32.707Z,96.09
2022-08-16T05:20:39.164Z,95.84
2022-08-16T05:22:50.971Z,96.58
2022-08-16T05:25:22.179Z,96.74
2022-08-16T05:27:55.320Z,97.00
2022-08-16T05:30:34.338Z,97.04
2022-08-16T05:33:14.391Z,97.62
2022-08-16T05:35:54.828Z,97.62
2022-08-16T05:38:45.116Z,97.54
2022-08-16T05:41:16.796Z,97.60
2022-08-16T05:43:46.722Z,97.48
2022-08-16T05:46:29.617Z,97.90
2022-08-16T05:49:05.939Z,97.80
2022-08-16T05:51:38.610Z,97.83
2022-08-16T05:54:09.585Z,98.21
2022-08-16T05:56:39.235Z,98.18
2022-08-16T05:59:08.205Z,98.48
2022-08-16T06:01:38.237Z,98.37
2022-08-16T06:04:12.881Z,97.97
2022-08-16T06:06:56.946Z,97.85
2022-08-16T06:09:43.817Z,97.80
2022-08-16T06:12:28.023Z,97.23
2022-08-16T06:14:59.625Z,97.00
2022-08-16T06:17:42.438Z,96.82
2022-08-16T06:20:23.800Z,96.09
2022-08-16T06:22:58.988Z,96.03
2022-08-16T06:25:39.618Z,95.94
2022-08-16T06:28:17.148Z,96.35
2022-08-16T06:30:58.940Z,96.42
2022-08-16T06:33:29.321Z,95.88
2022-08-16T06:36:11.490Z,95.66
2022-08-16T06:38:55.837Z,95.81
2022-08-16T06:41:44.677Z,95.44
2022-08-16T06:44:32.598Z,94.73
2022-08-16T06:47:04.603Z,94.05
2022-08-16T06:49:32.611Z,93.84
2022-08-16T06:52:03.723Z,94.36
2022-08-16T06:54:38.169Z,93.79
2022-08-16T06:57:11.667Z,93.82
2022-08-16T06:59:52.353Z,93.37
2022-08-16T07:02:33.394Z,93.05
2022-08-16T07:05:03.184Z,92.93
2022-08-16T07:07:50.861Z,91.77
2022-08-16T07:10:25.620Z,89.60
2022-08-16T07:13:03.586Z,88.97
2022-08-16T07:15:34.489Z,88.41
2022-08-16T07:18:03.220Z,88.38
2022-08-16T07:20:47.091Z,87.85
2022-08-16T07:23:18.311Z,87.72
2022-08-16T07:25:56.493Z,86.38
2022-08-16T07:28:26.947Z,84.39
2022-08-16T07:30:56.297Z,83.18
2022-08-16T07:33:52.605Z,83.69
2022-08-16T07:36:21.908Z,82.52
2022-08-16T07:38:52.258Z,81.96
2022-08-16T07:41:20.485Z,80.75
2022-08-16T07:43:53.876Z,79.67
2022-08-16T07:46:38.362Z,78.58
2022-08-16T07:49:23.266Z,79.22
2022-08-16T07:51:56.009Z,81.01
2022-08-16T07:54:31.984Z,79.27
2022-08-16T07:57:02.745Z,80.66
2022-08-16T07:59:45.831Z,79.26
2022-08-16T08:02:20.190Z,77.44
2022-08-16T08:04:51.585Z,75.72
2022-08-16T08:07:20.850Z,74.73
2022-08-16T08:09:51.573Z,73.89
2022-08-16T08:12:32.533Z,72.97
2022-08-16T08:15:09.613Z,72.47
2022-08-16T08:17:42.769Z,72.07
2022-08-16T08:20:26.184Z,71.14
2022-08-16T08:23:00.929Z,71.27
2022-08-16T08:25:54.279Z,70.42
2022-08-16T08:28:20.886Z,69.92
2022-08-16T08:31:01.259Z,72.19
2022-08-16T08:33:34.024Z,72.34
2022-08-16T08:36:07.311Z,68.97
2022-08-16T08:38:43.896Z,69.99
2022-08-16T08:41:18.523Z,71.81
2022-08-16T08:43:50.341Z,71.17
2022-08-16T08:46:21.544Z,70.38
2022-08-16T08:49:01.981Z,70.87
2022-08-16T08:51:36.910Z,69.16
2022-08-16T08:54:09.340Z,67.86
2022-08-16T08:56:45.304Z,67.04
2022-08-16T08:59:27.061Z,64.16
2022-08-16T09:01:57.853Z,64.94
2022-08-16T09:04:28.247Z,64.43
2022-08-16T09:06:58.442Z,65.26
2022-08-16T09:09:33.643Z,64.87
2022-08-16T09:12:07.188Z,63.16
2022-08-16T09:14:53.815Z,62.92
2022-08-16T09:17:45.631Z,62.87
2022-08-16T09:20:16.789Z,62.10
2022-08-16T09:22:51.170Z,61.29
2022-08-16T09:25:26.422Z,61.38
2022-08-16T09:28:09.416Z,60.53
2022-08-16T09:30:44.958Z,58.59
2022-08-16T09:33:20.003Z,59.06
2022-08-16T09:35:53.828Z,59.30
2022-08-16T09:38:32.218Z,58.68
2022-08-16T09:41:01.909Z,59.53
2022-08-16T09:43:59.735Z,60.18
2022-08-16T09:46:49.121Z,59.01
2022-08-16T09:49:08.502Z,59.81
2022-08-16T09:51:37.474Z,60.73
2022-08-16T09:54:06.021Z,57.06
2022-08-16T09:56:35.813Z,57.41
2022-08-16T09:59:08.671Z,59.36
2022-08-16T10:01:38.383Z,60.59
2022-08-16T10:04:30.257Z,58.39
2022-08-16T10:09:45.239Z,57.01
2022-08-16T10:12:33.941Z,57.03
2022-08-16T10:15:02.978Z,56.56
2022-08-16T10:17:30.962Z,55.44
2022-08-16T10:19:58.793Z,54.08
2022-08-16T10:22:26.988Z,53.10
2022-08-16T10:24:55.737Z,53.78
2022-08-16T10:27:45.674Z,53.13
2022-08-16T10:30:25.873Z,52.75
2022-08-16T10:32:56.683Z,53.39
2022-08-16T10:35:24.897Z,53.21
2022-08-16T10:38:01.205Z,53.72
2022-08-16T10:40:30.656Z,52.74
2022-08-16T10:42:59.833Z,53.62
2022-08-16T10:45:37.131Z,53.18
2022-08-16T10:48:27.732Z,53.03
2022-08-16T10:50:57.887Z,50.38
2022-08-16T10:53:26.284Z,50.85
2022-08-16T10:56:02.487Z,50.27
2022-08-16T10:58:34.098Z,49.88
2022-08-16T11:03:54.571Z,48.52
2022-08-16T11:06:28.087Z,49.23
2022-08-16T11:14:34.461Z,47.14
2022-08-16T11:17:10.583Z,47.05
2022-08-16T11:22:46.871Z,47.07
2022-08-16T11:28:08.792Z,47.68
2022-08-16T11:30:39.336Z,47.24
2022-08-16T11:33:08.849Z,45.53
2022-08-16T11:35:44.049Z,45.54
2022-08-16T11:38:46.541Z,45.86
2022-08-16T11:41:04.349Z,45.39
2022-08-16T11:43:35.631Z,44.60
2022-08-16T11:46:42.861Z,45.51
2022-08-16T11:48:58.828Z,46.43
2022-08-16T11:51:26.517Z,46.31
2022-08-16T11:53:54.521Z,45.73
2022-08-16T11:56:40.066Z,45.67
2022-08-16T11:59:10.225Z,46.29
2022-08-16T12:01:44.565Z,46.88
2022-08-16T12:04:25.770Z,46.44
2022-08-16T12:06:54.660Z,46.20
2022-08-16T12:09:23.960Z,45.63
2022-08-16T12:11:53.322Z,44.33
2022-08-16T12:14:23.030Z,45.00
2022-08-16T12:16:55.640Z,45.59
2022-08-16T12:19:35.590Z,45.27
2022-08-16T12:22:19.339Z,44.98
2022-08-16T12:24:52.181Z,44.50
2022-08-16T12:27:23.008Z,45.03
2022-08-16T12:29:52.163Z,45.20
2022-08-16T12:32:35.977Z,44.88
2022-08-16T12:35:10.402Z,45.01
2022-08-16T12:37:38.851Z,44.74
2022-08-16T12:40:23.829Z,44.49
2022-08-16T12:42:58.509Z,44.56
2022-08-16T12:45:29.224Z,44.28
2022-08-16T12:48:33.854Z,44.14
2022-08-16T12:51:13.719Z,43.13
2022-08-16T12:53:47.931Z,42.82
2022-08-16T12:56:18.931Z,43.27
2022-08-16T12:58:51.949Z,42.51
2022-08-16T13:01:22.689Z,42.21
2022-08-16T13:04:03.493Z,42.91
2022-08-16T13:06:41.153Z,42.92
2022-08-16T13:09:20.529Z,42.03
2022-08-16T13:11:59.992Z,41.55
2022-08-16T13:14:33.065Z,42.33
2022-08-16T13:17:02.066Z,41.68
2022-08-16T13:19:55.990Z,41.54
2022-08-16T13:22:19.604Z,40.43
2022-08-16T13:24:47.726Z,39.14
2022-08-16T13:27:15.598Z,39.61
2022-08-16T13:29:45.068Z,38.68
2022-08-16T13:32:39.683Z,38.50
2022-08-16T13:35:06.914Z,38.86
2022-08-16T13:37:46.833Z,38.21
2022-08-16T13:40:16.346Z,37.97
2022-08-16T13:42:49.531Z,38.38
2022-08-16T13:45:19.348Z,38.62
2022-08-16T13:47:53.129Z,38.03
2022-08-16T13:50:31.518Z,38.48
2022-08-16T13:53:11.239Z,38.80
2022-08-16T13:55:38.910Z,38.27
2022-08-16T13:58:36.384Z,38.78
2022-08-16T14:00:56.421Z,38.04
2022-08-16T14:03:24.874Z,37.57
2022-08-16T14:05:52.708Z,37.21
2022-08-16T14:08:26.583Z,37.46
2022-08-16T14:10:55.427Z,37.73
2022-08-16T14:13:23.140Z,37.20
2022-08-16T14:15:50.729Z,36.51
2022-08-16T14:18:20.509Z,36.81
2022-08-16T14:20:51.279Z,37.39
2022-08-16T14:23:23.696Z,37.54
2022-08-16T14:25:53.884Z,37.38
2022-08-16T14:28:23.691Z,37.44
2022-08-16T14:30:53.485Z,37.75
2022-08-16T14:33:21.161Z,38.22
2022-08-16T14:35:50.368Z,37.89
2022-08-16T14:38:23.809Z,37.78
2022-08-16T14:40:55.220Z,37.19
2022-08-16T14:43:24.025Z,37.61
2022-08-16T14:45:54.677Z,37.80
2022-08-16T14:48:25.849Z,37.13
2022-08-16T14:50:54.698Z,38.06
2022-08-16T14:53:23.754Z,37.85
2022-08-16T14:55:53.307Z,37.44
2022-08-16T14:58:34.699Z,37.95
2022-08-16T15:01:05.423Z,38.57
2022-08-16T15:03:37.331Z,38.85
2022-08-16T15:06:05.936Z,38.56
2022-08-16T15:08:36.125Z,38.44
2022-08-16T15:11:07.660Z,38.88
2022-08-16T15:13:35.947Z,37.79
2022-08-16T15:16:04.049Z,38.19
2022-08-16T15:18:33.330Z,38.63
2022-08-16T15:21:02.297Z,38.82
2022-08-16T15:23:34.038Z,38.90
2022-08-16T15:26:03.876Z,39.03
2022-08-16T15:28:36.609Z,39.29
2022-08-16T15:31:08.137Z,39.01
2022-08-16T15:33:43.377Z,38.94
2022-08-16T15:36:17.969Z,39.39
2022-08-16T15:38:58.100Z,39.38
2022-08-16T15:42:06.599Z,39.52
2022-08-16T15:44:44.677Z,39.95
2022-08-16T15:47:19.768Z,40.49
2022-08-16T15:49:53.087Z,40.01
2022-08-16T15:52:29.785Z,40.82
2022-08-16T15:54:59.201Z,41.33
2022-08-16T15:57:30.277Z,41.40
2022-08-16T16:00:15.147Z,41.74
2022-08-16T16:02:44.101Z,42.41
2022-08-16T16:05:12.172Z,43.30
2022-08-16T16:07:40.888Z,44.97
2022-08-16T16:10:26.322Z,46.37
2022-08-16T16:12:59.635Z,47.19
2022-08-16T16:15:33.206Z,48.05
2022-08-16T16:18:09.396Z,48.90
2022-08-16T16:20:43.470Z,48.38
2022-08-16T16:23:12.058Z,48.33
2022-08-16T16:25:44.048Z,48.82
2022-08-16T16:29:06.129Z,49.30
2022-08-16T16:31:04.789Z,49.79
2022-08-16T16:33:36.812Z,51.46
2022-08-16T16:36:07.030Z,54.75
2022-08-16T16:38:35.905Z,55.96
2022-08-16T16:41:09.929Z,56.47
2022-08-16T16:43:40.676Z,55.18
2022-08-16T16:46:40.371Z,55.09
2022-08-16T16:49:00.373Z,55.76
2022-08-16T16:51:32.217Z,57.00
2022-08-16T16:54:09.382Z,56.58
2022-08-16T16:56:49.533Z,58.40
2022-08-16T16:59:19.806Z,60.98
2022-08-16T17:01:59.385Z,61.46
2022-08-16T17:04:32.077Z,61.52
2022-08-16T17:07:01.653Z,61.83
2022-08-16T17:09:30.142Z,61.32
2022-08-16T17:11:58.109Z,60.00
2022-08-16T17:14:33.162Z,60.56
2022-08-16T17:17:06.047Z,59.96
2022-08-16T17:19:34.188Z,59.10
2022-08-16T17:22:14.361Z,59.64
2022-08-16T17:24:45.126Z,61.60
2022-08-16T17:27:18.146Z,62.01
2022-08-16T17:29:51.549Z,62.30
2022-08-16T17:32:34.402Z,62.40
2022-08-16T17:35:18.376Z,62.74
2022-08-16T17:37:51.138Z,62.80
2022-08-16T17:40:45.903Z,62.55
2022-08-16T17:43:10.128Z,61.55
2022-08-16T17:45:38.235Z,60.71
2022-08-16T17:48:07.637Z,60.20
2022-08-16T17:50:36.050Z,60.26
2022-08-16T17:53:04.967Z,60.12
2022-08-16T17:55:36.150Z,60.09
2022-08-16T17:58:09.768Z,60.38
2022-08-16T18:00:52.091Z,61.13
2022-08-16T18:04:02.962Z,61.96
2022-08-16T18:06:15.620Z,62.79
2022-08-16T18:08:43.270Z,63.79
2022-08-16T18:11:13.247Z,65.00
2022-08-16T18:13:42.933Z,65.75
2022-08-16T18:16:10.949Z,65.95
2022-08-16T18:18:39.974Z,66.08
2022-08-16T18:21:25.021Z,66.74
2022-08-16T18:23:52.787Z,67.70
2022-08-16T18:26:20.671Z,68.80
2022-08-16T18:28:48.823Z,67.90
2022-08-16T18:31:16.441Z,66.25
2022-08-16T18:33:45.353Z,65.73
2022-08-16T18:36:20.787Z,65.55
2022-08-16T18:38:49.670Z,65.65
2022-08-16T18:41:17.760Z,65.80
2022-08-16T18:44:22.549Z,65.82
2022-08-16T18:46:33.069Z,65.86
2022-08-16T18:49:02.363Z,65.99
2022-08-16T18:51:31.609Z,66.07
2022-08-16T18:53:59.399Z,66.44
2022-08-16T18:56:55.957Z,66.78
2022-08-16T18:59:14.647Z,67.70
2022-08-16T19:01:42.678Z,68.63
2022-08-16T19:04:56.455Z,69.17
2022-08-16T19:07:01.724Z,69.62
2022-08-16T19:09:29.497Z,70.29
2022-08-16T19:11:57.369Z,70.48
2022-08-16T19:14:29.927Z,70.98
2022-08-16T19:16:57.633Z,70.99
2022-08-16T19:19:26.800Z,71.14
2022-08-16T19:21:55.054Z,71.68
2022-08-16T19:24:22.734Z,71.72
2022-08-16T19:26:57.092Z,71.40
2022-08-16T19:29:25.323Z,70.91
2022-08-16T19:31:53.068Z,71.10
2022-08-16T19:34:20.733Z,71.37
2022-08-16T19:36:49.683Z,72.12
2022-08-16T19:39:18.269Z,72.62
2022-08-16T19:41:53.694Z,73.06
2022-08-16T19:44:22.455Z,73.41
2022-08-16T19:46:50.163Z,73.56
2022-08-16T19:49:17.910Z,73.44
2022-08-16T19:51:45.667Z,73.43
2022-08-16T19:54:14.904Z,73.33
2022-08-16T19:56:42.503Z,73.47
2022-08-16T19:59:39.293Z,73.17
2022-08-16T20:01:58.062Z,73.33
2022-08-16T20:04:25.810Z,73.49
2022-08-16T20:06:54.451Z,74.13
2022-08-16T20:09:24.736Z,74.61
2022-08-16T20:11:53.836Z,75.01
2022-08-16T20:14:25.593Z,75.49
2022-08-16T20:16:56.159Z,76.32
2022-08-16T20:19:23.972Z,76.56
2022-08-16T20:21:51.739Z,77.14
2022-08-16T20:24:36.208Z,77.29
2022-08-16T20:27:08.628Z,77.65
2022-08-16T20:29:38.257Z,78.04
2022-08-16T20:32:08.077Z,78.51
2022-08-16T20:34:36.178Z,78.83
2022-08-16T20:37:04.995Z,79.30
2022-08-16T20:39:32.970Z,79.52
2022-08-16T20:42:01.173Z,79.72
2022-08-16T20:44:30.247Z,79.78
2022-08-16T20:46:57.899Z,80.02
2022-08-16T20:49:25.493Z,80.36
2022-08-16T20:51:58.684Z,80.82
2022-08-16T20:54:27.590Z,81.34
2022-08-16T20:56:55.284Z,80.86
2022-08-16T20:59:22.851Z,81.15
2022-08-16T21:01:52.189Z,81.72
2022-08-16T21:04:21.162Z,81.31
2022-08-16T21:06:53.544Z,81.34
2022-08-16T21:09:24.676Z,81.72
2022-08-16T21:11:54.266Z,82.50
2022-08-16T21:14:21.999Z,82.99
2022-08-16T21:16:49.661Z,84.32
2022-08-16T21:19:19.789Z,84.79
2022-08-16T21:21:47.524Z,84.61
2022-08-16T21:24:15.715Z,84.44
2022-08-16T21:26:47.374Z,83.85
2022-08-16T21:29:25.019Z,84.90
2022-08-16T21:31:53.015Z,85.81
2022-08-16T21:34:22.485Z,86.43
2022-08-16T21:36:50.118Z,86.18
2022-08-16T21:39:17.746Z,86.34
2022-08-16T21:41:46.195Z,85.93
2022-08-16T21:44:13.719Z,86.35
2022-08-16T21:46:41.441Z,86.48
2022-08-16T21:49:09.092Z,86.32
2022-08-16T21:51:37.996Z,86.70
2022-08-16T21:54:06.397Z,86.48
2022-08-16T21:56:34.109Z,86.86
2022-08-16T21:59:06.182Z,87.59
2022-08-16T22:01:33.854Z,88.03
2022-08-16T22:04:35.694Z,87.38
2022-08-16T22:06:50.741Z,86.75
2022-08-16T22:09:18.408Z,86.84
2022-08-16T22:11:46.276Z,87.79
2022-08-16T22:14:14.079Z,88.77
2022-08-16T22:16:43.384Z,89.46
2022-08-16T22:19:13.164Z,89.96
2022-08-16T22:21:41.102Z,89.88
2022-08-16T22:24:10.735Z,89.29
2022-08-16T22:26:43.041Z,88.27
2022-08-16T22:29:13.247Z,87.76
2022-08-16T22:31:41.802Z,88.06
2022-08-16T22:34:10.028Z,88.75
2022-08-16T22:36:38.827Z,89.62
2022-08-16T22:39:09.082Z,90.19
2022-08-16T22:41:40.229Z,90.28
2022-08-16T22:44:08.894Z,90.47
2022-08-16T22:46:37.598Z,90.36
2022-08-16T22:49:06.294Z,90.36
2022-08-16T22:51:35.476Z,90.76
2022-08-16T22:54:43.775Z,91.33
2022-08-16T22:56:52.906Z,91.20
2022-08-16T22:59:20.575Z,90.60
2022-08-16T23:01:48.270Z,90.84
2022-08-16T23:04:15.885Z,91.15
2022-08-16T23:06:43.606Z,91.09
2022-08-16T23:09:11.259Z,90.38
2022-08-16T23:11:39.246Z,90.44
2022-08-16T23:14:08.267Z,91.28
2022-08-16T23:16:35.861Z,91.16
2022-08-16T23:19:07.151Z,91.58
2022-08-16T23:21:36.975Z,91.25
2022-08-16T23:24:05.578Z,90.93
2022-08-16T23:26:44.674Z,90.98
2022-08-16T23:29:23.973Z,90.72
2022-08-16T23:31:55.868Z,90.18
2022-08-16T23:34:24.140Z,89.59
2022-08-16T23:36:51.801Z,88.79
2022-08-16T23:39:19.385Z,88.14
2022-08-16T23:41:47.017Z,88.85
2022-08-16T23:44:44.257Z,89.18
2022-08-16T23:47:05.180Z,88.50
2022-08-16T23:49:59.557Z,88.32
2022-08-16T23:52:39.343Z,89.31
2022-08-16T23:55:08.897Z,90.05
2022-08-16T23:57:37.395Z,90.17
